JBU1759 KJFK-MKJP
Flight info
| Callsign | JBU1759 |
|---|---|
| Flight time | 3h 23m |
| Altitude | 36000 |
| Route | N0447F360 DCT WAVEY DCT EMJAY Q167 ZJAAY DCT KALDA DCT TUGGR Q101 SKARP DCT IDOLS DCT RROOO Y323 CARPX Y307 ENAMO DCT NEFTU/N0434F370 UP525 EMABU UA301 IMADI DCT SAVEM ELSER6 |
| Aircraft | A320/M-SDE3FGHIRWY/LB1 |
Departure
| Time | 2026-05-06 21:44 |
|---|---|
| Airport | John F. Kennedy International Airport (KJFK) |
Arrival
| Time | 2026-05-07 01:08 |
|---|---|
| Airport | Norman Manley International Airport (MKJP) |
| Time | Latitude | Longitude | Altitude | Speed | Heading |
|---|---|---|---|---|---|
| 2026-05-06 21:19 | 40.64545 | -73.77300 | 27 ft | 0 kts | 0° |
| 2026-05-06 21:33 | 40.64544 | -73.77300 | 27 ft | 1 kts | 0° |
| 2026-05-06 21:33 | 40.64530 | -73.77301 | 27 ft | 3 kts | 8° |
| 2026-05-06 21:33 | 40.64512 | -73.77308 | 27 ft | 3 kts | 25° |
| 2026-05-06 21:33 | 40.64495 | -73.77322 | 27 ft | 3 kts | 43° |
| 2026-05-06 21:34 | 40.64482 | -73.77343 | 27 ft | 3 kts | 59° |
| 2026-05-06 21:34 | 40.64474 | -73.77367 | 27 ft | 3 kts | 72° |
| 2026-05-06 21:34 | 40.64470 | -73.77382 | 27 ft | 0 kts | 72° |
| 2026-05-06 21:36 | 40.64471 | -73.77380 | 27 ft | 1 kts | 72° |
| 2026-05-06 21:36 | 40.64471 | -73.77363 | 27 ft | 4 kts | 92° |
| 2026-05-06 21:37 | 40.64469 | -73.77321 | 27 ft | 5 kts | 94° |
| 2026-05-06 21:37 | 40.64467 | -73.77277 | 27 ft | 5 kts | 95° |
| 2026-05-06 21:37 | 40.64457 | -73.77228 | 27 ft | 7 kts | 107° |
| 2026-05-06 21:37 | 40.64444 | -73.77155 | 27 ft | 9 kts | 103° |
| 2026-05-06 21:38 | 40.64430 | -73.77079 | 27 ft | 9 kts | 103° |
| 2026-05-06 21:38 | 40.64427 | -73.77005 | 27 ft | 8 kts | 56° |
| 2026-05-06 21:38 | 40.64471 | -73.76965 | 27 ft | 8 kts | 30° |
| 2026-05-06 21:38 | 40.64519 | -73.76932 | 27 ft | 8 kts | 25° |
| 2026-05-06 21:39 | 40.64569 | -73.76900 | 27 ft | 8 kts | 24° |
| 2026-05-06 21:39 | 40.64623 | -73.76876 | 27 ft | 8 kts | 18° |
| 2026-05-06 21:39 | 40.64678 | -73.76846 | 27 ft | 9 kts | 28° |
| 2026-05-06 21:39 | 40.64735 | -73.76807 | 27 ft | 10 kts | 27° |
| 2026-05-06 21:40 | 40.64796 | -73.76762 | 27 ft | 11 kts | 30° |
| 2026-05-06 21:40 | 40.64868 | -73.76707 | 27 ft | 13 kts | 31° |
| 2026-05-06 21:40 | 40.64951 | -73.76643 | 27 ft | 15 kts | 32° |
| 2026-05-06 21:40 | 40.65042 | -73.76570 | 27 ft | 15 kts | 30° |
| 2026-05-06 21:41 | 40.65102 | -73.76524 | 27 ft | 8 kts | 30° |
| 2026-05-06 21:41 | 40.65109 | -73.76498 | 27 ft | 4 kts | 108° |
| 2026-05-06 21:41 | 40.65098 | -73.76457 | 27 ft | 5 kts | 117° |
| 2026-05-06 21:41 | 40.65081 | -73.76418 | 27 ft | 0 kts | 117° |
| 2026-05-06 21:42 | 40.65080 | -73.76413 | 27 ft | 2 kts | 117° |
| 2026-05-06 21:43 | 40.65065 | -73.76381 | 27 ft | 6 kts | 129° |
| 2026-05-06 21:43 | 40.65032 | -73.76349 | 27 ft | 6 kts | 181° |
| 2026-05-06 21:43 | 40.65003 | -73.76370 | 27 ft | 0 kts | 219° |
| 2026-05-06 21:43 | 40.65000 | -73.76373 | 27 ft | 6 kts | 219° |
| 2026-05-06 21:44 | 40.64757 | -73.76562 | 27 ft | 76 kts | 211° |
| 2026-05-06 21:44 | 40.64121 | -73.77058 | 28 ft | 135 kts | 210° |
| 2026-05-06 21:44 | 40.63233 | -73.77769 | 354 ft | 149 kts | 210° |
| 2026-05-06 21:44 | 40.62354 | -73.78452 | 1040 ft | 147 kts | 212° |
| 2026-05-06 21:45 | 40.61430 | -73.79165 | 1448 ft | 163 kts | 212° |
| 2026-05-06 21:45 | 40.60390 | -73.79988 | 1762 ft | 186 kts | 211° |
| 2026-05-06 21:45 | 40.59223 | -73.80915 | 2187 ft | 205 kts | 208° |
| 2026-05-06 21:45 | 40.57817 | -73.81550 | 2693 ft | 228 kts | 191° |
| 2026-05-06 21:46 | 40.56206 | -73.81213 | 3484 ft | 249 kts | 167° |
| 2026-05-06 21:46 | 40.54742 | -73.79877 | 4423 ft | 268 kts | 146° |
| 2026-05-06 21:46 | 40.53442 | -73.78088 | 5247 ft | 271 kts | 147° |
| 2026-05-06 21:46 | 40.52057 | -73.76360 | 5999 ft | 276 kts | 148° |
| 2026-05-06 21:47 | 40.50625 | -73.74591 | 6756 ft | 283 kts | 147° |
| 2026-05-06 21:47 | 40.49203 | -73.72765 | 7500 ft | 289 kts | 145° |
| 2026-05-06 21:47 | 40.47791 | -73.70902 | 8220 ft | 294 kts | 144° |
| 2026-05-06 21:47 | 40.46333 | -73.68983 | 8917 ft | 300 kts | 144° |
| 2026-05-06 21:48 | 40.44842 | -73.67048 | 9613 ft | 304 kts | 144° |
| 2026-05-06 21:48 | 40.43314 | -73.65081 | 10275 ft | 310 kts | 144° |
| 2026-05-06 21:48 | 40.41747 | -73.63067 | 10766 ft | 322 kts | 144° |
| 2026-05-06 21:48 | 40.40116 | -73.60962 | 11200 ft | 335 kts | 143° |
| 2026-05-06 21:49 | 40.38416 | -73.58763 | 11588 ft | 349 kts | 143° |
| 2026-05-06 21:49 | 40.36652 | -73.56493 | 11958 ft | 362 kts | 143° |
| 2026-05-06 21:49 | 40.34841 | -73.54154 | 12505 ft | 367 kts | 143° |
| 2026-05-06 21:49 | 40.33018 | -73.51794 | 13132 ft | 370 kts | 143° |
| 2026-05-06 21:50 | 40.31198 | -73.49437 | 13723 ft | 374 kts | 143° |
| 2026-05-06 21:50 | 40.29343 | -73.47035 | 14306 ft | 377 kts | 143° |
| 2026-05-06 21:50 | 40.27464 | -73.44614 | 14880 ft | 380 kts | 144° |
| 2026-05-06 21:50 | 40.25557 | -73.42168 | 15444 ft | 384 kts | 144° |
| 2026-05-06 21:51 | 40.23629 | -73.39732 | 15987 ft | 384 kts | 147° |
| 2026-05-06 21:51 | 40.21544 | -73.37577 | 16525 ft | 382 kts | 152° |
| 2026-05-06 21:51 | 40.19378 | -73.35535 | 17052 ft | 384 kts | 154° |
| 2026-05-06 21:51 | 40.17177 | -73.33534 | 17571 ft | 387 kts | 154° |
| 2026-05-06 21:52 | 40.14957 | -73.31516 | 18081 ft | 390 kts | 154° |
| 2026-05-06 21:52 | 40.12674 | -73.29745 | 18558 ft | 381 kts | 166° |
| 2026-05-06 21:52 | 40.10181 | -73.28858 | 19013 ft | 365 kts | 184° |
| 2026-05-06 21:52 | 40.07727 | -73.29073 | 19454 ft | 350 kts | 202° |
| 2026-05-06 21:53 | 40.05513 | -73.30265 | 19883 ft | 339 kts | 218° |
| 2026-05-06 21:53 | 40.03679 | -73.32149 | 20337 ft | 335 kts | 227° |
| 2026-05-06 21:53 | 40.01956 | -73.34220 | 20791 ft | 337 kts | 229° |
| 2026-05-06 21:53 | 40.00225 | -73.36308 | 21243 ft | 340 kts | 228° |
| 2026-05-06 21:54 | 39.98448 | -73.38373 | 21682 ft | 343 kts | 227° |
| 2026-05-06 21:54 | 39.96620 | -73.40420 | 22097 ft | 347 kts | 227° |
| 2026-05-06 21:54 | 39.94767 | -73.42454 | 22506 ft | 350 kts | 227° |
| 2026-05-06 21:54 | 39.92925 | -73.44480 | 22869 ft | 353 kts | 227° |
| 2026-05-06 21:55 | 39.91050 | -73.46566 | 23234 ft | 356 kts | 228° |
| 2026-05-06 21:55 | 39.89165 | -73.48672 | 23608 ft | 359 kts | 228° |
| 2026-05-06 21:55 | 39.87257 | -73.50802 | 23978 ft | 361 kts | 228° |
| 2026-05-06 21:55 | 39.85345 | -73.52931 | 24346 ft | 363 kts | 228° |
| 2026-05-06 21:56 | 39.83412 | -73.55078 | 24732 ft | 365 kts | 229° |
| 2026-05-06 21:56 | 39.81472 | -73.57234 | 25121 ft | 366 kts | 229° |
| 2026-05-06 21:56 | 39.79546 | -73.59378 | 25498 ft | 367 kts | 229° |
| 2026-05-06 21:56 | 39.77596 | -73.61549 | 25876 ft | 368 kts | 229° |
| 2026-05-06 21:57 | 39.75649 | -73.63712 | 26245 ft | 369 kts | 230° |
| 2026-05-06 21:57 | 39.73722 | -73.65853 | 26604 ft | 369 kts | 230° |
| 2026-05-06 21:57 | 39.71764 | -73.68027 | 26953 ft | 370 kts | 230° |
| 2026-05-06 21:57 | 39.69804 | -73.70202 | 27298 ft | 371 kts | 230° |
| 2026-05-06 21:58 | 39.67835 | -73.72389 | 27564 ft | 374 kts | 230° |
| 2026-05-06 21:58 | 39.65807 | -73.74667 | 26927 ft | 399 kts | 230° |
| 2026-05-06 21:58 | 39.63692 | -73.77074 | 26737 ft | 411 kts | 230° |
| 2026-05-06 21:58 | 39.61513 | -73.79570 | 26391 ft | 425 kts | 230° |
| 2026-05-06 21:59 | 39.59227 | -73.82103 | 26227 ft | 436 kts | 227° |
| 2026-05-06 21:59 | 39.56860 | -73.84594 | 26434 ft | 436 kts | 227° |
| 2026-05-06 21:59 | 39.54527 | -73.87041 | 26946 ft | 428 kts | 228° |
| 2026-05-06 21:59 | 39.52258 | -73.89485 | 27509 ft | 419 kts | 230° |
| 2026-05-06 22:00 | 39.50100 | -73.91861 | 27798 ft | 395 kts | 231° |
| 2026-05-06 22:00 | 39.47967 | -73.94005 | 27824 ft | 384 kts | 224° |
| 2026-05-06 22:00 | 39.45630 | -73.95722 | 27847 ft | 392 kts | 220° |
| 2026-05-06 22:00 | 39.43161 | -73.97348 | 27855 ft | 404 kts | 218° |
| 2026-05-06 22:01 | 39.40605 | -73.98974 | 27857 ft | 413 kts | 218° |
| 2026-05-06 22:01 | 39.38045 | -74.00623 | 27858 ft | 420 kts | 218° |
| 2026-05-06 22:01 | 39.35438 | -74.02356 | 27856 ft | 423 kts | 219° |
| 2026-05-06 22:01 | 39.32822 | -74.04135 | 27855 ft | 427 kts | 219° |
| 2026-05-06 22:02 | 39.30183 | -74.05934 | 27854 ft | 430 kts | 219° |
| 2026-05-06 22:02 | 39.27494 | -74.07748 | 27853 ft | 431 kts | 219° |
| 2026-05-06 22:02 | 39.24869 | -74.09500 | 27853 ft | 431 kts | 219° |
| 2026-05-06 22:02 | 39.22197 | -74.11276 | 27847 ft | 431 kts | 219° |
| 2026-05-06 22:03 | 39.19537 | -74.13047 | 27842 ft | 431 kts | 219° |
| 2026-05-06 22:03 | 39.16870 | -74.14826 | 27834 ft | 431 kts | 219° |
| 2026-05-06 22:03 | 39.14209 | -74.16608 | 27812 ft | 432 kts | 219° |
| 2026-05-06 22:03 | 39.11540 | -74.18396 | 27811 ft | 432 kts | 219° |
| 2026-05-06 22:04 | 39.08860 | -74.20183 | 27812 ft | 433 kts | 218° |
| 2026-05-06 22:04 | 39.06227 | -74.21925 | 27922 ft | 414 kts | 219° |
| 2026-05-06 22:04 | 39.03725 | -74.23557 | 28305 ft | 394 kts | 219° |
| 2026-05-06 22:04 | 39.01327 | -74.25137 | 28903 ft | 383 kts | 220° |
| 2026-05-06 22:05 | 38.98986 | -74.26708 | 29488 ft | 376 kts | 221° |
| 2026-05-06 22:05 | 38.96686 | -74.28260 | 30053 ft | 370 kts | 222° |
| 2026-05-06 22:05 | 38.94457 | -74.29751 | 30634 ft | 364 kts | 222° |
| 2026-05-06 22:05 | 38.92208 | -74.31249 | 30975 ft | 364 kts | 222° |
| 2026-05-06 22:06 | 38.87627 | -74.34310 | 31202 ft | 375 kts | 221° |
| 2026-05-06 22:06 | 38.85316 | -74.35830 | 31624 ft | 372 kts | 220° |
| 2026-05-06 22:06 | 38.82999 | -74.37350 | 31822 ft | 376 kts | 220° |
| 2026-05-06 22:07 | 38.80664 | -74.38891 | 32070 ft | 377 kts | 220° |
| 2026-05-06 22:07 | 38.78330 | -74.40437 | 32310 ft | 378 kts | 220° |
| 2026-05-06 22:07 | 38.75989 | -74.41986 | 32551 ft | 379 kts | 219° |
| 2026-05-06 22:07 | 38.73638 | -74.43538 | 32783 ft | 381 kts | 219° |
| 2026-05-06 22:08 | 38.71279 | -74.45089 | 33006 ft | 382 kts | 219° |
| 2026-05-06 22:08 | 38.68908 | -74.46645 | 33230 ft | 383 kts | 218° |
| 2026-05-06 22:08 | 38.66562 | -74.48189 | 33441 ft | 384 kts | 218° |
| 2026-05-06 22:08 | 38.64177 | -74.49757 | 33659 ft | 386 kts | 218° |
| 2026-05-06 22:09 | 38.61783 | -74.51328 | 33863 ft | 387 kts | 218° |
| 2026-05-06 22:09 | 38.59384 | -74.52903 | 34065 ft | 388 kts | 218° |
| 2026-05-06 22:09 | 38.56979 | -74.54483 | 34261 ft | 389 kts | 217° |
| 2026-05-06 22:09 | 38.54557 | -74.56070 | 34461 ft | 390 kts | 217° |
| 2026-05-06 22:10 | 38.52139 | -74.57653 | 34669 ft | 391 kts | 217° |
| 2026-05-06 22:10 | 38.49710 | -74.59242 | 34866 ft | 392 kts | 217° |
| 2026-05-06 22:10 | 38.47280 | -74.60829 | 35068 ft | 393 kts | 216° |
| 2026-05-06 22:10 | 38.44839 | -74.62424 | 35250 ft | 394 kts | 216° |
| 2026-05-06 22:11 | 38.42399 | -74.64016 | 35428 ft | 395 kts | 216° |
| 2026-05-06 22:11 | 38.39949 | -74.65612 | 35610 ft | 395 kts | 216° |
| 2026-05-06 22:11 | 38.37528 | -74.67190 | 35776 ft | 396 kts | 216° |
| 2026-05-06 22:11 | 38.35066 | -74.68795 | 35889 ft | 396 kts | 215° |
| 2026-05-06 22:12 | 38.30158 | -74.71984 | 35885 ft | 396 kts | 215° |
| 2026-05-06 22:12 | 38.25252 | -74.75175 | 35885 ft | 396 kts | 215° |
| 2026-05-06 22:13 | 38.20342 | -74.78361 | 35885 ft | 396 kts | 215° |
| 2026-05-06 22:13 | 38.15429 | -74.81537 | 35886 ft | 396 kts | 215° |
| 2026-05-06 22:14 | 38.10520 | -74.84711 | 35890 ft | 396 kts | 215° |
| 2026-05-06 22:14 | 38.05637 | -74.87867 | 35891 ft | 396 kts | 215° |
| 2026-05-06 22:15 | 38.00729 | -74.91034 | 35892 ft | 396 kts | 215° |
| 2026-05-06 22:15 | 37.96612 | -74.93686 | 35892 ft | 396 kts | 215° |
| 2026-05-06 22:16 | 37.90898 | -74.97354 | 35893 ft | 396 kts | 215° |
| 2026-05-06 22:16 | 37.86804 | -74.99980 | 35893 ft | 396 kts | 215° |
| 2026-05-06 22:17 | 37.81838 | -75.03175 | 35908 ft | 405 kts | 215° |
| 2026-05-06 22:17 | 37.76787 | -75.06404 | 35913 ft | 409 kts | 215° |
| 2026-05-06 22:18 | 37.71700 | -75.09648 | 35913 ft | 409 kts | 215° |
| 2026-05-06 22:18 | 37.66634 | -75.12881 | 35914 ft | 410 kts | 215° |
| 2026-05-06 22:19 | 37.61537 | -75.16128 | 35920 ft | 410 kts | 215° |
| 2026-05-06 22:19 | 37.56436 | -75.19373 | 35917 ft | 411 kts | 215° |
| 2026-05-06 22:20 | 37.51353 | -75.22600 | 35906 ft | 412 kts | 215° |
| 2026-05-06 22:20 | 37.46222 | -75.25853 | 35866 ft | 413 kts | 215° |
| 2026-05-06 22:21 | 37.41080 | -75.29108 | 35861 ft | 414 kts | 215° |
| 2026-05-06 22:21 | 37.35910 | -75.32379 | 35862 ft | 416 kts | 215° |
| 2026-05-06 22:22 | 37.30737 | -75.35642 | 35881 ft | 416 kts | 215° |
| 2026-05-06 22:22 | 37.25558 | -75.38902 | 35935 ft | 416 kts | 216° |
| 2026-05-06 22:23 | 37.20373 | -75.42170 | 35915 ft | 418 kts | 216° |
| 2026-05-06 22:23 | 37.15194 | -75.45424 | 35872 ft | 419 kts | 216° |
| 2026-05-06 22:24 | 37.09965 | -75.48705 | 35857 ft | 421 kts | 216° |
| 2026-05-06 22:24 | 37.04716 | -75.51992 | 35856 ft | 422 kts | 216° |
| 2026-05-06 22:25 | 36.99445 | -75.55289 | 35864 ft | 424 kts | 216° |
| 2026-05-06 22:25 | 36.94151 | -75.58590 | 35861 ft | 426 kts | 216° |
| 2026-05-06 22:26 | 36.88843 | -75.61896 | 35894 ft | 426 kts | 216° |
| 2026-05-06 22:26 | 36.83539 | -75.65201 | 35952 ft | 426 kts | 216° |
| 2026-05-06 22:27 | 36.78228 | -75.68502 | 35950 ft | 427 kts | 216° |
| 2026-05-06 22:27 | 36.72949 | -75.71774 | 35953 ft | 426 kts | 216° |
| 2026-05-06 22:28 | 36.67641 | -75.75064 | 35940 ft | 426 kts | 216° |
| 2026-05-06 22:28 | 36.62330 | -75.78348 | 35899 ft | 426 kts | 216° |
| 2026-05-06 22:29 | 36.57008 | -75.81634 | 35859 ft | 427 kts | 216° |
| 2026-05-06 22:29 | 36.51681 | -75.84918 | 35868 ft | 427 kts | 216° |
| 2026-05-06 22:30 | 36.46343 | -75.88200 | 35874 ft | 428 kts | 216° |
| 2026-05-06 22:30 | 36.41001 | -75.91488 | 35877 ft | 429 kts | 216° |
| 2026-05-06 22:31 | 36.35672 | -75.94761 | 35896 ft | 430 kts | 216° |
| 2026-05-06 22:31 | 36.30292 | -75.98056 | 35894 ft | 431 kts | 216° |
| 2026-05-06 22:32 | 36.24914 | -76.01344 | 35947 ft | 431 kts | 215° |
| 2026-05-06 22:32 | 36.19531 | -76.04632 | 35952 ft | 431 kts | 215° |
| 2026-05-06 22:33 | 36.14144 | -76.07917 | 35981 ft | 431 kts | 215° |
| 2026-05-06 22:33 | 36.08783 | -76.11179 | 35982 ft | 432 kts | 215° |
| 2026-05-06 22:34 | 36.03390 | -76.14456 | 35978 ft | 432 kts | 216° |
| 2026-05-06 22:34 | 35.98003 | -76.17732 | 35978 ft | 432 kts | 216° |
| 2026-05-06 22:35 | 35.92594 | -76.21011 | 35952 ft | 432 kts | 216° |
| 2026-05-06 22:35 | 35.87186 | -76.24277 | 35917 ft | 433 kts | 216° |
| 2026-05-06 22:36 | 35.81817 | -76.27527 | 35898 ft | 433 kts | 216° |
| 2026-05-06 22:36 | 35.76405 | -76.30794 | 35892 ft | 433 kts | 216° |
| 2026-05-06 22:37 | 35.70987 | -76.34055 | 35894 ft | 433 kts | 216° |
| 2026-05-06 22:37 | 35.65558 | -76.37320 | 35885 ft | 434 kts | 216° |
| 2026-05-06 22:38 | 35.60147 | -76.40573 | 35919 ft | 434 kts | 215° |
| 2026-05-06 22:38 | 35.54734 | -76.43817 | 35975 ft | 432 kts | 215° |
| 2026-05-06 22:39 | 35.49377 | -76.47024 | 35943 ft | 420 kts | 215° |
| 2026-05-06 22:39 | 35.44152 | -76.50151 | 35937 ft | 418 kts | 214° |
| 2026-05-06 22:40 | 35.39026 | -76.53215 | 35924 ft | 409 kts | 214° |
| 2026-05-06 22:40 | 35.33890 | -76.56276 | 35918 ft | 410 kts | 214° |
| 2026-05-06 22:41 | 35.26177 | -76.60865 | 35939 ft | 409 kts | 214° |
| 2026-05-06 22:42 | 35.21058 | -76.63914 | 35950 ft | 409 kts | 214° |
| 2026-05-06 22:42 | 35.15973 | -76.66934 | 35942 ft | 409 kts | 214° |
| 2026-05-06 22:43 | 35.10846 | -76.69962 | 35900 ft | 409 kts | 214° |
| 2026-05-06 22:43 | 35.05722 | -76.73004 | 35859 ft | 410 kts | 214° |
| 2026-05-06 22:44 | 35.00577 | -76.76046 | 35864 ft | 410 kts | 214° |
| 2026-05-06 22:44 | 34.95425 | -76.79085 | 35887 ft | 410 kts | 214° |
| 2026-05-06 22:45 | 34.90285 | -76.82107 | 35927 ft | 410 kts | 214° |
| 2026-05-06 22:45 | 34.85173 | -76.85115 | 35891 ft | 411 kts | 214° |
| 2026-05-06 22:46 | 34.80020 | -76.88143 | 35908 ft | 410 kts | 214° |
| 2026-05-06 22:46 | 34.74882 | -76.91158 | 35925 ft | 410 kts | 214° |
| 2026-05-06 22:47 | 34.69734 | -76.94181 | 35911 ft | 410 kts | 214° |
| 2026-05-06 22:47 | 34.64589 | -76.97185 | 35906 ft | 410 kts | 214° |
| 2026-05-06 22:48 | 34.59438 | -77.00200 | 35907 ft | 410 kts | 214° |
| 2026-05-06 22:48 | 34.54321 | -77.03185 | 35911 ft | 410 kts | 214° |
| 2026-05-06 22:49 | 34.49168 | -77.06186 | 35943 ft | 410 kts | 214° |
| 2026-05-06 22:49 | 34.44031 | -77.09176 | 35945 ft | 409 kts | 214° |
| 2026-05-06 22:50 | 34.38883 | -77.12172 | 35932 ft | 412 kts | 216° |
| 2026-05-06 22:50 | 34.33681 | -77.15207 | 35981 ft | 422 kts | 216° |
| 2026-05-06 22:51 | 34.28316 | -77.18313 | 36000 ft | 431 kts | 216° |
| 2026-05-06 22:51 | 34.22889 | -77.21435 | 36001 ft | 430 kts | 216° |
| 2026-05-06 22:52 | 34.17484 | -77.24560 | 36003 ft | 430 kts | 216° |
| 2026-05-06 22:52 | 34.12086 | -77.27683 | 36004 ft | 430 kts | 216° |
| 2026-05-06 22:53 | 34.06687 | -77.30793 | 36014 ft | 430 kts | 216° |
| 2026-05-06 22:53 | 34.01300 | -77.33887 | 36047 ft | 428 kts | 216° |
| 2026-05-06 22:54 | 33.95952 | -77.36954 | 36034 ft | 428 kts | 216° |
| 2026-05-06 22:54 | 33.90570 | -77.40049 | 36004 ft | 428 kts | 216° |
| 2026-05-06 22:55 | 33.85194 | -77.43132 | 36006 ft | 427 kts | 216° |
| 2026-05-06 22:55 | 33.79859 | -77.46183 | 36009 ft | 427 kts | 216° |
| 2026-05-06 22:56 | 33.74485 | -77.49255 | 35984 ft | 427 kts | 216° |
| 2026-05-06 22:56 | 33.69106 | -77.52324 | 36003 ft | 427 kts | 216° |
| 2026-05-06 22:57 | 33.63739 | -77.55381 | 35988 ft | 427 kts | 216° |
| 2026-05-06 22:57 | 33.58246 | -77.58221 | 35984 ft | 439 kts | 207° |
| 2026-05-06 22:57 | 33.55193 | -77.58935 | 35996 ft | 455 kts | 195° |
| 2026-05-06 22:58 | 33.52175 | -77.59148 | 36032 ft | 459 kts | 192° |
| 2026-05-06 22:58 | 33.45611 | -77.59265 | 36061 ft | 460 kts | 191° |
| 2026-05-06 22:59 | 33.39273 | -77.59549 | 36060 ft | 457 kts | 193° |
| 2026-05-06 22:59 | 33.32925 | -77.59979 | 36055 ft | 457 kts | 193° |
| 2026-05-06 23:00 | 33.26556 | -77.60314 | 36031 ft | 458 kts | 192° |
| 2026-05-06 23:00 | 33.20176 | -77.60620 | 36012 ft | 458 kts | 193° |
| 2026-05-06 23:01 | 33.13815 | -77.60966 | 36004 ft | 458 kts | 193° |
| 2026-05-06 23:01 | 33.07451 | -77.61309 | 36006 ft | 458 kts | 193° |
| 2026-05-06 23:02 | 33.01082 | -77.61639 | 36014 ft | 458 kts | 193° |
| 2026-05-06 23:02 | 32.94709 | -77.61974 | 36048 ft | 457 kts | 193° |
| 2026-05-06 23:03 | 32.88353 | -77.62310 | 36067 ft | 457 kts | 193° |
| 2026-05-06 23:03 | 32.82040 | -77.62643 | 36067 ft | 457 kts | 193° |
| 2026-05-06 23:04 | 32.75676 | -77.62976 | 36080 ft | 456 kts | 192° |
| 2026-05-06 23:04 | 32.70385 | -77.63252 | 36076 ft | 456 kts | 192° |
| 2026-05-06 23:05 | 32.63021 | -77.63637 | 36054 ft | 455 kts | 192° |
| 2026-05-06 23:05 | 32.57710 | -77.63915 | 36021 ft | 456 kts | 192° |
| 2026-05-06 23:06 | 32.51404 | -77.64244 | 35996 ft | 456 kts | 192° |
| 2026-05-06 23:06 | 32.45065 | -77.64573 | 36006 ft | 455 kts | 192° |
| 2026-05-06 23:07 | 32.38733 | -77.64903 | 35992 ft | 456 kts | 192° |
| 2026-05-06 23:07 | 32.32395 | -77.65232 | 36014 ft | 455 kts | 192° |
| 2026-05-06 23:08 | 32.26107 | -77.65557 | 36019 ft | 455 kts | 192° |
| 2026-05-06 23:08 | 32.19773 | -77.65886 | 36021 ft | 455 kts | 192° |
| 2026-05-06 23:09 | 32.13452 | -77.66213 | 36064 ft | 455 kts | 192° |
| 2026-05-06 23:09 | 32.07117 | -77.66541 | 36048 ft | 455 kts | 192° |
| 2026-05-06 23:10 | 32.00789 | -77.66867 | 36050 ft | 455 kts | 192° |
| 2026-05-06 23:10 | 31.94464 | -77.67193 | 36065 ft | 454 kts | 192° |
| 2026-05-06 23:11 | 31.88151 | -77.67522 | 36094 ft | 453 kts | 192° |
| 2026-05-06 23:11 | 31.81908 | -77.67835 | 36097 ft | 450 kts | 191° |
| 2026-05-06 23:12 | 31.75662 | -77.68158 | 36100 ft | 447 kts | 192° |
| 2026-05-06 23:12 | 31.69454 | -77.68479 | 36066 ft | 445 kts | 192° |
| 2026-05-06 23:13 | 31.63275 | -77.68793 | 36023 ft | 443 kts | 192° |
| 2026-05-06 23:13 | 31.57111 | -77.69112 | 36011 ft | 443 kts | 192° |
| 2026-05-06 23:14 | 31.50944 | -77.69428 | 36008 ft | 444 kts | 192° |
| 2026-05-06 23:14 | 31.44798 | -77.69741 | 36012 ft | 445 kts | 192° |
| 2026-05-06 23:15 | 31.38596 | -77.70059 | 36008 ft | 447 kts | 192° |
| 2026-05-06 23:15 | 31.32371 | -77.70376 | 36010 ft | 449 kts | 192° |
| 2026-05-06 23:16 | 31.26116 | -77.70691 | 36055 ft | 449 kts | 191° |
| 2026-05-06 23:16 | 31.19872 | -77.71007 | 36103 ft | 449 kts | 191° |
| 2026-05-06 23:17 | 31.13654 | -77.71325 | 36098 ft | 449 kts | 191° |
| 2026-05-06 23:17 | 31.07417 | -77.71640 | 36095 ft | 448 kts | 191° |
| 2026-05-06 23:18 | 31.01185 | -77.71955 | 36071 ft | 448 kts | 191° |
| 2026-05-06 23:18 | 30.94950 | -77.72271 | 36038 ft | 448 kts | 191° |
| 2026-05-06 23:19 | 30.88711 | -77.72585 | 36021 ft | 448 kts | 191° |
| 2026-05-06 23:19 | 30.82511 | -77.72898 | 36019 ft | 448 kts | 191° |
| 2026-05-06 23:20 | 30.76273 | -77.73211 | 36026 ft | 448 kts | 191° |
| 2026-05-06 23:20 | 30.70034 | -77.73526 | 36037 ft | 448 kts | 191° |
| 2026-05-06 23:21 | 30.63799 | -77.73838 | 36053 ft | 448 kts | 191° |
| 2026-05-06 23:21 | 30.57577 | -77.74149 | 36093 ft | 447 kts | 191° |
| 2026-05-06 23:22 | 30.51334 | -77.74461 | 36099 ft | 448 kts | 191° |
| 2026-05-06 23:22 | 30.45134 | -77.74773 | 36101 ft | 447 kts | 191° |
| 2026-05-06 23:23 | 30.38874 | -77.74920 | 36093 ft | 453 kts | 187° |
| 2026-05-06 23:23 | 30.32572 | -77.74593 | 36063 ft | 455 kts | 186° |
| 2026-05-06 23:24 | 30.26282 | -77.74206 | 36020 ft | 454 kts | 186° |
| 2026-05-06 23:24 | 30.19950 | -77.73890 | 35998 ft | 458 kts | 187° |
| 2026-05-06 23:25 | 30.13506 | -77.73576 | 36006 ft | 466 kts | 186° |
| 2026-05-06 23:25 | 30.07013 | -77.73222 | 36005 ft | 468 kts | 186° |
| 2026-05-06 23:26 | 30.00501 | -77.72872 | 36005 ft | 468 kts | 186° |
| 2026-05-06 23:26 | 29.94030 | -77.72545 | 36005 ft | 468 kts | 186° |
| 2026-05-06 23:27 | 29.87516 | -77.72207 | 36011 ft | 468 kts | 186° |
| 2026-05-06 23:27 | 29.80993 | -77.71865 | 36012 ft | 468 kts | 186° |
| 2026-05-06 23:28 | 29.74535 | -77.71528 | 36018 ft | 468 kts | 186° |
| 2026-05-06 23:28 | 29.68028 | -77.71192 | 36023 ft | 468 kts | 186° |
| 2026-05-06 23:29 | 29.61520 | -77.70859 | 36027 ft | 468 kts | 186° |
| 2026-05-06 23:29 | 29.55015 | -77.70519 | 36031 ft | 468 kts | 186° |
| 2026-05-06 23:30 | 29.48505 | -77.70183 | 36035 ft | 468 kts | 186° |
| 2026-05-06 23:30 | 29.42003 | -77.69855 | 36038 ft | 468 kts | 186° |
| 2026-05-06 23:31 | 29.35538 | -77.69523 | 36037 ft | 468 kts | 186° |
| 2026-05-06 23:31 | 29.29032 | -77.69187 | 36037 ft | 468 kts | 186° |
| 2026-05-06 23:32 | 29.22522 | -77.68853 | 36037 ft | 468 kts | 186° |
| 2026-05-06 23:32 | 29.16018 | -77.68516 | 36037 ft | 468 kts | 186° |
| 2026-05-06 23:33 | 29.09516 | -77.68185 | 36037 ft | 468 kts | 186° |
| 2026-05-06 23:33 | 29.03003 | -77.67822 | 36041 ft | 468 kts | 185° |
| 2026-05-06 23:34 | 28.96499 | -77.67456 | 36057 ft | 467 kts | 185° |
| 2026-05-06 23:34 | 28.90018 | -77.67107 | 36051 ft | 466 kts | 185° |
| 2026-05-06 23:35 | 28.83569 | -77.66758 | 36019 ft | 466 kts | 185° |
| 2026-05-06 23:35 | 28.77048 | -77.66403 | 35984 ft | 466 kts | 185° |
| 2026-05-06 23:36 | 28.70602 | -77.66053 | 35972 ft | 466 kts | 185° |
| 2026-05-06 23:36 | 28.64121 | -77.65701 | 35977 ft | 466 kts | 185° |
| 2026-05-06 23:37 | 28.57646 | -77.65349 | 36002 ft | 466 kts | 185° |
| 2026-05-06 23:37 | 28.51166 | -77.65010 | 36010 ft | 465 kts | 185° |
| 2026-05-06 23:38 | 28.44695 | -77.64740 | 36022 ft | 465 kts | 186° |
| 2026-05-06 23:38 | 28.38226 | -77.64457 | 36034 ft | 465 kts | 185° |
| 2026-05-06 23:39 | 28.31788 | -77.64156 | 36047 ft | 465 kts | 185° |
| 2026-05-06 23:39 | 28.25304 | -77.63860 | 36058 ft | 465 kts | 185° |
| 2026-05-06 23:40 | 28.18830 | -77.63570 | 36058 ft | 465 kts | 185° |
| 2026-05-06 23:40 | 28.12353 | -77.63278 | 36058 ft | 465 kts | 184° |
| 2026-05-06 23:41 | 28.05926 | -77.62932 | 36066 ft | 466 kts | 181° |
| 2026-05-06 23:41 | 27.99441 | -77.62473 | 36069 ft | 467 kts | 181° |
| 2026-05-06 23:42 | 27.92934 | -77.62079 | 36097 ft | 467 kts | 181° |
| 2026-05-06 23:42 | 27.86434 | -77.61700 | 36157 ft | 467 kts | 181° |
| 2026-05-06 23:43 | 27.79932 | -77.61301 | 36157 ft | 468 kts | 181° |
| 2026-05-06 23:43 | 27.73437 | -77.60905 | 36160 ft | 467 kts | 181° |
| 2026-05-06 23:44 | 27.66990 | -77.60513 | 36153 ft | 467 kts | 181° |
| 2026-05-06 23:44 | 27.60494 | -77.60123 | 36138 ft | 467 kts | 181° |
| 2026-05-06 23:45 | 27.54006 | -77.59730 | 36139 ft | 467 kts | 181° |
| 2026-05-06 23:45 | 27.47515 | -77.59336 | 36148 ft | 466 kts | 181° |
| 2026-05-06 23:46 | 27.41035 | -77.58947 | 36136 ft | 466 kts | 181° |
| 2026-05-06 23:46 | 27.34595 | -77.58556 | 36129 ft | 466 kts | 181° |
| 2026-05-06 23:47 | 27.28108 | -77.58168 | 36130 ft | 466 kts | 181° |
| 2026-05-06 23:47 | 27.21613 | -77.57777 | 36136 ft | 466 kts | 181° |
| 2026-05-06 23:48 | 27.15155 | -77.57389 | 36146 ft | 466 kts | 181° |
| 2026-05-06 23:48 | 27.08669 | -77.57004 | 36157 ft | 466 kts | 181° |
| 2026-05-06 23:49 | 27.02179 | -77.56616 | 36157 ft | 467 kts | 181° |
| 2026-05-06 23:49 | 26.95674 | -77.56223 | 36159 ft | 467 kts | 181° |
| 2026-05-06 23:50 | 26.89234 | -77.55834 | 36158 ft | 466 kts | 181° |
| 2026-05-06 23:50 | 26.79498 | -77.55260 | 36153 ft | 466 kts | 181° |
| 2026-05-06 23:51 | 26.73015 | -77.54868 | 36151 ft | 466 kts | 181° |
| 2026-05-06 23:51 | 26.66534 | -77.54485 | 36147 ft | 466 kts | 181° |
| 2026-05-06 23:52 | 26.60053 | -77.54097 | 36150 ft | 466 kts | 181° |
| 2026-05-06 23:52 | 26.53563 | -77.53715 | 36152 ft | 466 kts | 181° |
| 2026-05-06 23:53 | 26.47121 | -77.53335 | 36156 ft | 466 kts | 181° |
| 2026-05-06 23:53 | 26.40636 | -77.52944 | 36156 ft | 467 kts | 181° |
| 2026-05-06 23:54 | 26.34140 | -77.52554 | 36155 ft | 467 kts | 181° |
| 2026-05-06 23:54 | 26.28746 | -77.52237 | 36159 ft | 467 kts | 181° |
| 2026-05-06 23:55 | 26.22237 | -77.51849 | 36150 ft | 467 kts | 181° |
| 2026-05-06 23:55 | 26.15751 | -77.51464 | 36117 ft | 467 kts | 181° |
| 2026-05-06 23:56 | 26.09300 | -77.51082 | 36122 ft | 467 kts | 181° |
| 2026-05-06 23:56 | 26.02800 | -77.50698 | 36126 ft | 467 kts | 181° |
| 2026-05-06 23:57 | 25.96315 | -77.50316 | 36120 ft | 467 kts | 181° |
| 2026-05-06 23:57 | 25.89855 | -77.49940 | 36120 ft | 467 kts | 181° |
| 2026-05-06 23:58 | 25.83358 | -77.49557 | 36096 ft | 468 kts | 181° |
| 2026-05-06 23:58 | 25.76840 | -77.49178 | 36075 ft | 469 kts | 181° |
| 2026-05-06 23:59 | 25.70314 | -77.48805 | 36090 ft | 468 kts | 181° |
| 2026-05-06 23:59 | 25.63802 | -77.48420 | 36106 ft | 468 kts | 181° |
| 2026-05-07 00:00 | 25.57293 | -77.48011 | 36122 ft | 468 kts | 181° |
| 2026-05-07 00:00 | 25.50818 | -77.47612 | 36139 ft | 468 kts | 181° |
| 2026-05-07 00:01 | 25.44310 | -77.47218 | 36127 ft | 469 kts | 180° |
| 2026-05-07 00:01 | 25.37782 | -77.46818 | 36134 ft | 469 kts | 180° |
| 2026-05-07 00:02 | 25.31266 | -77.46417 | 36145 ft | 469 kts | 180° |
| 2026-05-07 00:02 | 25.24752 | -77.46020 | 36157 ft | 469 kts | 180° |
| 2026-05-07 00:03 | 25.18231 | -77.45616 | 36158 ft | 469 kts | 180° |
| 2026-05-07 00:03 | 25.11707 | -77.45217 | 36158 ft | 469 kts | 180° |
| 2026-05-07 00:04 | 25.05189 | -77.44818 | 36158 ft | 469 kts | 180° |
| 2026-05-07 00:04 | 24.98713 | -77.44420 | 36156 ft | 469 kts | 180° |
| 2026-05-07 00:05 | 24.92190 | -77.44027 | 36158 ft | 469 kts | 180° |
| 2026-05-07 00:05 | 24.85667 | -77.43628 | 36158 ft | 469 kts | 180° |
| 2026-05-07 00:06 | 24.79140 | -77.43235 | 36158 ft | 469 kts | 180° |
| 2026-05-07 00:06 | 24.72625 | -77.42850 | 36158 ft | 469 kts | 180° |
| 2026-05-07 00:07 | 24.66099 | -77.42457 | 36157 ft | 469 kts | 180° |
| 2026-05-07 00:07 | 24.59623 | -77.42070 | 36157 ft | 469 kts | 181° |
| 2026-05-07 00:08 | 24.53105 | -77.41683 | 36157 ft | 469 kts | 181° |
| 2026-05-07 00:08 | 24.46591 | -77.41295 | 36158 ft | 469 kts | 181° |
| 2026-05-07 00:09 | 24.40081 | -77.40907 | 36158 ft | 468 kts | 181° |
| 2026-05-07 00:09 | 24.33571 | -77.40522 | 36141 ft | 468 kts | 181° |
| 2026-05-07 00:10 | 24.27060 | -77.40136 | 36126 ft | 468 kts | 181° |
| 2026-05-07 00:10 | 24.20546 | -77.39748 | 36117 ft | 468 kts | 181° |
| 2026-05-07 00:11 | 24.14069 | -77.39366 | 36115 ft | 468 kts | 181° |
| 2026-05-07 00:11 | 24.07561 | -77.38982 | 36135 ft | 468 kts | 181° |
| 2026-05-07 00:12 | 24.01063 | -77.38597 | 36155 ft | 467 kts | 180° |
| 2026-05-07 00:12 | 23.94566 | -77.38214 | 36157 ft | 467 kts | 181° |
| 2026-05-07 00:13 | 23.88085 | -77.37832 | 36153 ft | 466 kts | 181° |
| 2026-05-07 00:13 | 23.81642 | -77.37454 | 36134 ft | 466 kts | 181° |
| 2026-05-07 00:14 | 23.75157 | -77.37071 | 36104 ft | 466 kts | 181° |
| 2026-05-07 00:14 | 23.68670 | -77.36689 | 36093 ft | 466 kts | 181° |
| 2026-05-07 00:15 | 23.62185 | -77.36309 | 36093 ft | 466 kts | 181° |
| 2026-05-07 00:15 | 23.55713 | -77.35980 | 36097 ft | 465 kts | 184° |
| 2026-05-07 00:16 | 23.49251 | -77.36123 | 36107 ft | 463 kts | 186° |
| 2026-05-07 00:16 | 23.42805 | -77.36369 | 36123 ft | 463 kts | 186° |
| 2026-05-07 00:17 | 23.36401 | -77.36558 | 36143 ft | 463 kts | 185° |
| 2026-05-07 00:17 | 23.29942 | -77.36727 | 36155 ft | 463 kts | 186° |
| 2026-05-07 00:18 | 23.23494 | -77.36926 | 36158 ft | 464 kts | 186° |
| 2026-05-07 00:18 | 23.17028 | -77.37122 | 36160 ft | 463 kts | 186° |
| 2026-05-07 00:19 | 23.10623 | -77.37304 | 36154 ft | 463 kts | 186° |
| 2026-05-07 00:19 | 23.04176 | -77.37495 | 36140 ft | 463 kts | 186° |
| 2026-05-07 00:20 | 22.97732 | -77.37685 | 36129 ft | 463 kts | 186° |
| 2026-05-07 00:20 | 22.91283 | -77.37876 | 36124 ft | 463 kts | 186° |
| 2026-05-07 00:21 | 22.84831 | -77.38064 | 36125 ft | 463 kts | 186° |
| 2026-05-07 00:21 | 22.78375 | -77.38253 | 36131 ft | 463 kts | 186° |
| 2026-05-07 00:22 | 22.71924 | -77.38441 | 36141 ft | 463 kts | 186° |
| 2026-05-07 00:22 | 22.65513 | -77.38630 | 36156 ft | 463 kts | 186° |
| 2026-05-07 00:23 | 22.59069 | -77.38817 | 36155 ft | 463 kts | 186° |
| 2026-05-07 00:23 | 22.52611 | -77.39007 | 36159 ft | 463 kts | 186° |
| 2026-05-07 00:24 | 22.46158 | -77.39194 | 36156 ft | 463 kts | 186° |
| 2026-05-07 00:24 | 22.39727 | -77.39382 | 36159 ft | 462 kts | 186° |
| 2026-05-07 00:25 | 22.33341 | -77.39569 | 36129 ft | 462 kts | 186° |
| 2026-05-07 00:25 | 22.26924 | -77.39756 | 36086 ft | 462 kts | 184° |
| 2026-05-07 00:26 | 22.20422 | -77.39949 | 36090 ft | 471 kts | 184° |
| 2026-05-07 00:26 | 22.13833 | -77.40136 | 36088 ft | 474 kts | 184° |
| 2026-05-07 00:27 | 22.07268 | -77.40325 | 36102 ft | 474 kts | 184° |
| 2026-05-07 00:27 | 22.03961 | -77.40422 | 36303 ft | 474 kts | 184° |
| 2026-05-07 00:27 | 22.00665 | -77.40518 | 36520 ft | 474 kts | 184° |
| 2026-05-07 00:28 | 21.97365 | -77.40613 | 36725 ft | 475 kts | 184° |
| 2026-05-07 00:28 | 21.94061 | -77.40709 | 36927 ft | 475 kts | 184° |
| 2026-05-07 00:28 | 21.90757 | -77.40805 | 37131 ft | 475 kts | 184° |
| 2026-05-07 00:28 | 21.87454 | -77.40900 | 37329 ft | 475 kts | 184° |
| 2026-05-07 00:29 | 21.84147 | -77.40994 | 37527 ft | 475 kts | 184° |
| 2026-05-07 00:29 | 21.80839 | -77.41089 | 37714 ft | 475 kts | 184° |
| 2026-05-07 00:30 | 21.70930 | -77.41379 | 38089 ft | 474 kts | 184° |
| 2026-05-07 00:30 | 21.67636 | -77.41474 | 38089 ft | 474 kts | 184° |
| 2026-05-07 00:30 | 21.61048 | -77.41662 | 38087 ft | 474 kts | 184° |
| 2026-05-07 00:31 | 21.54480 | -77.41851 | 38086 ft | 474 kts | 184° |
| 2026-05-07 00:31 | 21.47893 | -77.42041 | 38085 ft | 474 kts | 184° |
| 2026-05-07 00:32 | 21.41285 | -77.42231 | 38059 ft | 474 kts | 184° |
| 2026-05-07 00:32 | 21.34685 | -77.42419 | 38036 ft | 474 kts | 184° |
| 2026-05-07 00:33 | 21.28124 | -77.42609 | 38033 ft | 474 kts | 184° |
| 2026-05-07 00:33 | 21.21527 | -77.42797 | 38030 ft | 474 kts | 184° |
| 2026-05-07 00:34 | 21.14919 | -77.42987 | 38051 ft | 474 kts | 184° |
| 2026-05-07 00:34 | 21.08326 | -77.43176 | 38069 ft | 474 kts | 184° |
| 2026-05-07 00:35 | 21.01733 | -77.43364 | 38076 ft | 474 kts | 184° |
| 2026-05-07 00:35 | 20.95152 | -77.43553 | 38086 ft | 474 kts | 184° |
| 2026-05-07 00:36 | 20.88542 | -77.43744 | 38096 ft | 474 kts | 184° |
| 2026-05-07 00:36 | 20.81946 | -77.43930 | 38097 ft | 474 kts | 184° |
| 2026-05-07 00:37 | 20.75361 | -77.44117 | 38096 ft | 474 kts | 184° |
| 2026-05-07 00:37 | 20.68817 | -77.44304 | 38097 ft | 474 kts | 184° |
| 2026-05-07 00:38 | 20.62221 | -77.44489 | 38079 ft | 474 kts | 183° |
| 2026-05-07 00:38 | 20.55627 | -77.44678 | 38061 ft | 474 kts | 183° |
| 2026-05-07 00:39 | 20.49035 | -77.44856 | 38052 ft | 474 kts | 183° |
| 2026-05-07 00:39 | 20.42473 | -77.45016 | 38048 ft | 473 kts | 183° |
| 2026-05-07 00:40 | 20.35875 | -77.45183 | 38047 ft | 473 kts | 183° |
| 2026-05-07 00:40 | 20.29284 | -77.45354 | 38050 ft | 473 kts | 183° |
| 2026-05-07 00:41 | 20.22704 | -77.45520 | 38051 ft | 473 kts | 183° |
| 2026-05-07 00:41 | 20.16112 | -77.45687 | 38051 ft | 473 kts | 183° |
| 2026-05-07 00:42 | 20.09567 | -77.45857 | 38048 ft | 474 kts | 183° |
| 2026-05-07 00:42 | 20.02975 | -77.46023 | 38041 ft | 474 kts | 183° |
| 2026-05-07 00:43 | 19.96375 | -77.46191 | 38031 ft | 474 kts | 183° |
| 2026-05-07 00:43 | 19.89785 | -77.46358 | 38072 ft | 473 kts | 183° |
| 2026-05-07 00:44 | 19.83200 | -77.46523 | 38086 ft | 473 kts | 183° |
| 2026-05-07 00:44 | 19.77713 | -77.46663 | 38082 ft | 473 kts | 183° |
| 2026-05-07 00:45 | 19.71131 | -77.46828 | 38091 ft | 473 kts | 183° |
| 2026-05-07 00:45 | 19.64554 | -77.46995 | 38086 ft | 473 kts | 183° |
| 2026-05-07 00:46 | 19.57975 | -77.47163 | 38085 ft | 472 kts | 183° |
| 2026-05-07 00:46 | 19.51399 | -77.47327 | 38078 ft | 472 kts | 182° |
| 2026-05-07 00:47 | 19.48126 | -77.47051 | 38029 ft | 474 kts | 168° |
| 2026-05-07 00:47 | 19.44963 | -77.46105 | 38030 ft | 473 kts | 162° |
| 2026-05-07 00:47 | 19.38776 | -77.43734 | 38025 ft | 473 kts | 159° |
| 2026-05-07 00:48 | 19.32620 | -77.41391 | 37873 ft | 470 kts | 161° |
| 2026-05-07 00:48 | 19.29533 | -77.40280 | 37311 ft | 466 kts | 161° |
| 2026-05-07 00:48 | 19.26452 | -77.39184 | 36379 ft | 470 kts | 161° |
| 2026-05-07 00:49 | 19.23326 | -77.38059 | 35174 ft | 479 kts | 161° |
| 2026-05-07 00:49 | 19.20134 | -77.36900 | 33889 ft | 489 kts | 160° |
| 2026-05-07 00:49 | 19.16897 | -77.35709 | 32689 ft | 495 kts | 159° |
| 2026-05-07 00:49 | 19.13640 | -77.34514 | 31846 ft | 492 kts | 160° |
| 2026-05-07 00:50 | 19.10434 | -77.33350 | 31375 ft | 480 kts | 160° |
| 2026-05-07 00:50 | 19.07315 | -77.32220 | 30899 ft | 469 kts | 160° |
| 2026-05-07 00:50 | 19.04244 | -77.31101 | 30104 ft | 466 kts | 160° |
| 2026-05-07 00:50 | 19.01182 | -77.29985 | 29257 ft | 464 kts | 160° |
| 2026-05-07 00:51 | 18.98165 | -77.28887 | 28713 ft | 454 kts | 160° |
| 2026-05-07 00:51 | 18.95218 | -77.27745 | 28020 ft | 448 kts | 156° |
| 2026-05-07 00:51 | 18.92414 | -77.26433 | 27256 ft | 445 kts | 154° |
| 2026-05-07 00:51 | 18.89638 | -77.25063 | 26722 ft | 435 kts | 154° |
| 2026-05-07 00:52 | 18.86922 | -77.23692 | 25994 ft | 431 kts | 154° |
| 2026-05-07 00:52 | 18.84223 | -77.22333 | 25275 ft | 427 kts | 154° |
| 2026-05-07 00:52 | 18.81569 | -77.21011 | 24724 ft | 418 kts | 154° |
| 2026-05-07 00:52 | 18.78926 | -77.19718 | 23924 ft | 417 kts | 154° |
| 2026-05-07 00:53 | 18.76293 | -77.18442 | 23171 ft | 415 kts | 154° |
| 2026-05-07 00:53 | 18.73688 | -77.17175 | 22498 ft | 410 kts | 154° |
| 2026-05-07 00:53 | 18.71106 | -77.15907 | 21774 ft | 408 kts | 153° |
| 2026-05-07 00:53 | 18.68564 | -77.14643 | 21108 ft | 403 kts | 153° |
| 2026-05-07 00:54 | 18.66010 | -77.13383 | 20236 ft | 404 kts | 153° |
| 2026-05-07 00:54 | 18.63440 | -77.12124 | 19098 ft | 412 kts | 154° |
| 2026-05-07 00:54 | 18.60816 | -77.10840 | 17896 ft | 418 kts | 154° |
| 2026-05-07 00:54 | 18.58206 | -77.09563 | 16998 ft | 415 kts | 155° |
| 2026-05-07 00:55 | 18.55616 | -77.08297 | 16267 ft | 406 kts | 155° |
| 2026-05-07 00:55 | 18.53079 | -77.07056 | 15520 ft | 398 kts | 155° |
| 2026-05-07 00:55 | 18.50576 | -77.05828 | 14569 ft | 395 kts | 155° |
| 2026-05-07 00:55 | 18.48077 | -77.04598 | 13336 ft | 398 kts | 155° |
| 2026-05-07 00:56 | 18.45564 | -77.03365 | 12305 ft | 396 kts | 155° |
| 2026-05-07 00:56 | 18.43091 | -77.02157 | 11404 ft | 388 kts | 155° |
| 2026-05-07 00:56 | 18.40667 | -77.00976 | 10558 ft | 381 kts | 155° |
| 2026-05-07 00:56 | 18.38297 | -76.99814 | 10038 ft | 365 kts | 155° |
| 2026-05-07 00:57 | 18.36058 | -76.98716 | 9839 ft | 343 kts | 155° |
| 2026-05-07 00:57 | 18.33966 | -76.97695 | 9827 ft | 319 kts | 155° |
| 2026-05-07 00:57 | 18.32023 | -76.96745 | 9811 ft | 304 kts | 155° |
| 2026-05-07 00:57 | 18.30146 | -76.95823 | 9540 ft | 295 kts | 155° |
| 2026-05-07 00:58 | 18.28287 | -76.94912 | 8992 ft | 294 kts | 155° |
| 2026-05-07 00:58 | 18.26429 | -76.94004 | 8454 ft | 293 kts | 155° |
| 2026-05-07 00:58 | 18.24584 | -76.93107 | 7952 ft | 291 kts | 154° |
| 2026-05-07 00:58 | 18.22757 | -76.92220 | 7459 ft | 287 kts | 155° |
| 2026-05-07 00:59 | 18.18895 | -76.91857 | 6398 ft | 285 kts | 200° |
| 2026-05-07 00:59 | 18.17253 | -76.92997 | 5903 ft | 283 kts | 226° |
| 2026-05-07 00:59 | 18.16123 | -76.94644 | 5455 ft | 279 kts | 237° |
| 2026-05-07 01:00 | 18.15073 | -76.96348 | 4940 ft | 277 kts | 234° |
| 2026-05-07 01:00 | 18.13879 | -76.97962 | 4398 ft | 276 kts | 227° |
| 2026-05-07 01:00 | 18.12526 | -76.99397 | 4047 ft | 275 kts | 221° |
| 2026-05-07 01:00 | 18.11113 | -77.00666 | 3887 ft | 266 kts | 217° |
| 2026-05-07 01:01 | 18.09673 | -77.01827 | 3779 ft | 255 kts | 214° |
| 2026-05-07 01:01 | 18.08244 | -77.02869 | 3673 ft | 245 kts | 211° |
| 2026-05-07 01:01 | 18.06814 | -77.03770 | 3592 ft | 234 kts | 205° |
| 2026-05-07 01:01 | 18.05302 | -77.04207 | 3485 ft | 219 kts | 175° |
| 2026-05-07 01:02 | 18.03940 | -77.03705 | 3387 ft | 203 kts | 138° |
| 2026-05-07 01:02 | 18.03234 | -77.02537 | 3300 ft | 188 kts | 102° |
| 2026-05-07 01:02 | 18.03032 | -77.01217 | 3174 ft | 180 kts | 99° |
| 2026-05-07 01:02 | 18.02713 | -76.99950 | 2936 ft | 179 kts | 109° |
| 2026-05-07 01:03 | 18.02243 | -76.98731 | 2771 ft | 181 kts | 113° |
| 2026-05-07 01:03 | 18.01724 | -76.97523 | 2768 ft | 181 kts | 114° |
| 2026-05-07 01:03 | 18.01183 | -76.96323 | 2772 ft | 182 kts | 115° |
| 2026-05-07 01:03 | 18.00651 | -76.95121 | 2772 ft | 182 kts | 114° |
| 2026-05-07 01:04 | 18.00127 | -76.93914 | 2776 ft | 181 kts | 114° |
| 2026-05-07 01:04 | 17.99612 | -76.92740 | 2615 ft | 174 kts | 115° |
| 2026-05-07 01:04 | 17.99106 | -76.91595 | 2404 ft | 170 kts | 115° |
| 2026-05-07 01:04 | 17.98616 | -76.90477 | 2178 ft | 167 kts | 115° |
| 2026-05-07 01:05 | 17.98144 | -76.89405 | 1960 ft | 158 kts | 114° |
| 2026-05-07 01:05 | 17.97698 | -76.88386 | 1757 ft | 149 kts | 114° |
| 2026-05-07 01:05 | 17.97281 | -76.87439 | 1570 ft | 138 kts | 114° |
| 2026-05-07 01:05 | 17.96891 | -76.86551 | 1389 ft | 129 kts | 115° |
| 2026-05-07 01:06 | 17.96522 | -76.85709 | 1222 ft | 126 kts | 115° |
| 2026-05-07 01:06 | 17.96155 | -76.84875 | 1059 ft | 125 kts | 116° |
| 2026-05-07 01:06 | 17.95790 | -76.84046 | 894 ft | 125 kts | 116° |
| 2026-05-07 01:06 | 17.95424 | -76.83213 | 728 ft | 126 kts | 115° |
| 2026-05-07 01:07 | 17.95054 | -76.82372 | 560 ft | 128 kts | 115° |
| 2026-05-07 01:07 | 17.94681 | -76.81523 | 389 ft | 129 kts | 114° |
| 2026-05-07 01:07 | 17.94307 | -76.80660 | 221 ft | 129 kts | 113° |
| 2026-05-07 01:07 | 17.93967 | -76.79781 | 50 ft | 129 kts | 111° |
| 2026-05-07 01:08 | 17.93669 | -76.79013 | 32 ft | 90 kts | 112° |
| 2026-05-07 01:08 | 17.93501 | -76.78578 | 32 ft | 43 kts | 110° |
| 2026-05-07 01:08 | 17.93422 | -76.78372 | 32 ft | 19 kts | 111° |
| 2026-05-07 01:08 | 17.93407 | -76.78245 | 32 ft | 14 kts | 85° |
| 2026-05-07 01:09 | 17.93413 | -76.78151 | 32 ft | 13 kts | 86° |
| 2026-05-07 01:09 | 17.93420 | -76.78076 | 32 ft | 8 kts | 77° |
| 2026-05-07 01:09 | 17.93429 | -76.78020 | 32 ft | 7 kts | 82° |
| 2026-05-07 01:09 | 17.93445 | -76.77976 | 32 ft | 6 kts | 33° |
| 2026-05-07 01:10 | 17.93490 | -76.77956 | 32 ft | 8 kts | 25° |
| 2026-05-07 01:10 | 17.93541 | -76.77934 | 32 ft | 8 kts | 21° |
| 2026-05-07 01:10 | 17.93597 | -76.77911 | 32 ft | 7 kts | 20° |
| 2026-05-07 01:10 | 17.93643 | -76.77902 | 32 ft | 6 kts | 350° |
| 2026-05-07 01:11 | 17.93682 | -76.77914 | 32 ft | 4 kts | 340° |
| 2026-05-07 01:11 | 17.93689 | -76.77919 | 32 ft | 0 kts | 315° |